createdAt,value
2022-11-17T00:00:42.173Z,8.92
2022-11-17T00:03:12.860Z,8.97
2022-11-17T00:05:39.440Z,8.87
2022-11-17T00:08:06.143Z,8.87
2022-11-17T00:10:32.764Z,8.90
2022-11-17T00:13:28.665Z,8.97
2022-11-17T00:15:55.228Z,8.95
2022-11-17T00:18:40.613Z,8.97
2022-11-17T00:21:20.005Z,9.03
2022-11-17T00:23:50.735Z,9.07
2022-11-17T00:26:58.898Z,9.18
2022-11-17T00:29:25.609Z,9.26
2022-11-17T00:32:10.974Z,9.30
2022-11-17T00:34:37.699Z,9.26
2022-11-17T00:37:05.502Z,9.36
2022-11-17T00:39:32.819Z,9.32
2022-11-17T00:41:59.878Z,9.29
2022-11-17T00:44:26.931Z,9.23
2022-11-17T00:46:53.722Z,9.16
2022-11-17T00:49:21.705Z,9.19
2022-11-17T00:51:48.395Z,9.14
2022-11-17T00:54:15.581Z,8.98
2022-11-17T00:56:42.261Z,8.96
2022-11-17T00:59:09.129Z,9.01
2022-11-17T01:01:36.150Z,9.03
2022-11-17T01:04:03.766Z,8.95
2022-11-17T01:09:08.225Z,8.94
2022-11-17T01:11:34.861Z,8.97
2022-11-17T01:14:01.571Z,9.04
2022-11-17T01:16:29.314Z,9.11
2022-11-17T01:18:55.996Z,9.10
2022-11-17T01:21:25.217Z,9.11
2022-11-17T01:23:54.850Z,9.12
2022-11-17T01:26:27.956Z,9.11
2022-11-17T01:28:55.174Z,9.12
2022-11-17T01:31:24.686Z,9.15
2022-11-17T01:33:51.877Z,9.17
2022-11-17T01:36:29.100Z,9.10
2022-11-17T01:41:28.637Z,9.18
2022-11-17T01:44:19.381Z,9.29
2022-11-17T01:46:46.350Z,9.26
2022-11-17T01:49:18.495Z,9.29
2022-11-17T01:51:51.540Z,9.30
2022-11-17T01:54:23.136Z,9.25
2022-11-17T01:56:53.927Z,9.26
2022-11-17T01:59:31.645Z,9.15
2022-11-17T02:01:58.900Z,9.16
2022-11-17T02:04:29.825Z,9.10
2022-11-17T02:07:03.636Z,9.13
2022-11-17T02:09:31.744Z,9.10
2022-11-17T02:11:59.218Z,9.10
2022-11-17T02:14:25.895Z,9.14
2022-11-17T02:16:52.582Z,9.13
2022-11-17T02:19:24.042Z,9.19
2022-11-17T02:22:20.883Z,9.20
2022-11-17T02:25:25.724Z,9.21
2022-11-17T02:28:17.854Z,9.21
2022-11-17T02:31:03.826Z,9.21
2022-11-17T02:33:42.618Z,9.26
2022-11-17T02:36:19.144Z,9.16
2022-11-17T02:39:11.970Z,9.16
2022-11-17T02:41:50.266Z,9.12
2022-11-17T02:44:25.773Z,9.05
2022-11-17T02:47:03.381Z,9.04
2022-11-17T02:49:36.520Z,9.03
2022-11-17T02:52:05.766Z,9.06
2022-11-17T02:54:33.223Z,9.09
2022-11-17T02:57:00.347Z,9.07
2022-11-17T02:59:35.442Z,8.97
2022-11-17T03:02:28.942Z,8.94
2022-11-17T03:05:09.989Z,9.03
2022-11-17T03:10:42.012Z,8.97
2022-11-17T03:13:18.636Z,9.03
2022-11-17T03:15:52.373Z,9.03
2022-11-17T03:18:37.884Z,9.08
2022-11-17T03:21:07.508Z,9.11
2022-11-17T03:23:43.977Z,9.17
2022-11-17T03:26:16.878Z,9.22
2022-11-17T03:28:46.616Z,9.28
2022-11-17T03:31:16.559Z,9.34
2022-11-17T03:33:48.754Z,9.33
2022-11-17T03:36:20.156Z,9.33
2022-11-17T03:38:55.534Z,9.42
2022-11-17T03:41:23.899Z,9.45
2022-11-17T03:43:52.709Z,9.50
2022-11-17T03:46:22.264Z,9.52
2022-11-17T03:48:51.706Z,9.61
2022-11-17T03:51:24.865Z,9.78
2022-11-17T03:53:53.884Z,9.82
2022-11-17T03:56:38.397Z,9.86
2022-11-17T03:59:19.252Z,9.79
2022-11-17T04:01:45.985Z,9.86
2022-11-17T04:04:17.643Z,9.82
2022-11-17T04:06:44.352Z,9.73
2022-11-17T04:09:11.528Z,9.79
2022-11-17T04:11:56.687Z,9.86
2022-11-17T04:14:41.529Z,9.81
2022-11-17T04:17:08.269Z,9.80
2022-11-17T04:19:34.872Z,9.71
2022-11-17T04:22:01.551Z,9.68
2022-11-17T04:24:28.237Z,9.74
2022-11-17T04:27:13.392Z,9.68
2022-11-17T04:29:40.086Z,9.71
2022-11-17T04:32:06.734Z,9.73
2022-11-17T04:34:33.393Z,9.74
2022-11-17T04:37:03.877Z,9.78
2022-11-17T04:39:34.255Z,9.78
2022-11-17T04:42:05.031Z,9.80
2022-11-17T04:44:32.588Z,9.70
2022-11-17T04:47:02.137Z,9.82
2022-11-17T04:49:29.443Z,9.80
2022-11-17T04:51:56.081Z,9.74
2022-11-17T04:54:24.860Z,9.77
2022-11-17T04:59:25.687Z,9.90
2022-11-17T05:01:52.400Z,9.90
2022-11-17T05:04:39.500Z,9.88
2022-11-17T05:07:07.459Z,9.90
2022-11-17T05:09:34.127Z,9.90
2022-11-17T05:12:19.321Z,9.92
2022-11-17T05:14:47.830Z,9.94
2022-11-17T05:17:14.557Z,9.98
2022-11-17T05:19:46.727Z,10.04
2022-11-17T05:22:35.184Z,10.01
2022-11-17T05:27:40.341Z,10.01
2022-11-17T05:30:08.401Z,9.92
2022-11-17T05:32:35.036Z,10.03
2022-11-17T05:35:01.687Z,10.07
2022-11-17T05:37:28.350Z,10.05
2022-11-17T05:42:26.298Z,10.00
2022-11-17T05:44:53.002Z,10.04
2022-11-17T05:47:19.694Z,10.04
2022-11-17T05:49:46.356Z,10.05
2022-11-17T05:52:13.131Z,10.07
2022-11-17T05:54:39.759Z,10.07
2022-11-17T05:57:17.256Z,10.10
2022-11-17T05:59:50.495Z,10.20
2022-11-17T06:02:26.920Z,10.27
2022-11-17T06:04:53.595Z,10.14
2022-11-17T06:07:20.919Z,10.24
2022-11-17T06:09:48.002Z,10.20
2022-11-17T06:12:15.670Z,10.25
2022-11-17T06:14:42.817Z,10.27
2022-11-17T06:17:28.942Z,10.30
2022-11-17T06:20:01.325Z,10.33
2022-11-17T06:25:08.463Z,10.34
2022-11-17T06:27:37.120Z,10.40
2022-11-17T06:30:05.553Z,10.36
2022-11-17T06:32:35.054Z,10.37
2022-11-17T06:35:06.480Z,10.45
2022-11-17T06:37:33.196Z,10.44
2022-11-17T06:39:59.980Z,10.42
2022-11-17T06:42:45.086Z,10.43
2022-11-17T06:45:12.059Z,10.49
2022-11-17T06:47:38.730Z,10.46
2022-11-17T06:50:05.922Z,10.47
2022-11-17T06:52:32.562Z,10.43
2022-11-17T06:54:59.170Z,10.51
2022-11-17T06:57:25.779Z,10.51
2022-11-17T06:59:52.778Z,10.48
2022-11-17T07:02:20.182Z,10.59
2022-11-17T07:04:46.895Z,10.60
2022-11-17T07:07:13.662Z,10.67
2022-11-17T07:09:40.472Z,10.75
2022-11-17T07:12:07.112Z,10.74
2022-11-17T07:14:33.805Z,10.68
2022-11-17T07:17:00.424Z,10.78
2022-11-17T07:19:27.137Z,10.71
2022-11-17T07:21:53.736Z,10.78
2022-11-17T07:24:20.408Z,10.77
2022-11-17T07:26:47.158Z,10.77
2022-11-17T07:29:13.946Z,10.77
2022-11-17T07:31:40.601Z,10.86
2022-11-17T07:34:07.256Z,10.87
2022-11-17T07:36:33.892Z,10.90
2022-11-17T07:39:00.572Z,10.89
2022-11-17T07:41:27.456Z,10.92
2022-11-17T07:46:25.750Z,10.97
2022-11-17T07:48:56.207Z,10.98
2022-11-17T07:51:22.900Z,11.04
2022-11-17T07:53:49.604Z,11.12
2022-11-17T07:56:16.235Z,11.15
2022-11-17T07:58:43.032Z,11.21
2022-11-17T08:01:14.772Z,11.24
2022-11-17T08:03:42.645Z,11.26
2022-11-17T08:06:10.168Z,11.29
2022-11-17T08:08:38.779Z,11.29
2022-11-17T08:11:11.889Z,11.35
2022-11-17T08:13:40.012Z,11.34
2022-11-17T08:16:07.616Z,11.35
2022-11-17T08:18:35.171Z,11.45
2022-11-17T08:21:10.239Z,11.48
2022-11-17T08:23:37.657Z,11.50
2022-11-17T08:26:05.413Z,11.46
2022-11-17T08:28:32.281Z,11.60
2022-11-17T08:31:01.704Z,11.53
2022-11-17T08:33:28.581Z,11.56
2022-11-17T08:35:59.436Z,11.57
2022-11-17T08:38:29.242Z,11.59
2022-11-17T08:41:02.126Z,11.57
2022-11-17T08:43:28.990Z,11.52
2022-11-17T08:45:55.636Z,11.53
2022-11-17T08:48:23.020Z,11.61
2022-11-17T08:50:51.580Z,11.52
2022-11-17T08:53:20.591Z,11.57
2022-11-17T08:55:47.732Z,11.63
2022-11-17T08:58:14.429Z,11.63
2022-11-17T09:00:42.078Z,11.69
2022-11-17T09:03:10.432Z,11.70
2022-11-17T09:05:40.210Z,11.72
2022-11-17T09:08:37.879Z,11.76
2022-11-17T09:10:55.244Z,11.76
2022-11-17T09:15:53.261Z,11.87
2022-11-17T09:18:19.943Z,11.85
2022-11-17T09:20:46.708Z,11.88
2022-11-17T09:23:13.454Z,11.97
2022-11-17T09:25:40.142Z,12.01
2022-11-17T09:28:07.050Z,12.00
2022-11-17T09:30:33.732Z,12.01
2022-11-17T09:33:00.474Z,12.01
2022-11-17T09:35:27.079Z,12.05
2022-11-17T09:37:59.078Z,12.10
2022-11-17T09:40:25.860Z,12.09
2022-11-17T09:42:52.532Z,12.11
2022-11-17T09:45:30.445Z,12.07
2022-11-17T09:48:39.421Z,12.07
2022-11-17T09:51:00.410Z,12.10
2022-11-17T09:53:48.993Z,12.11
2022-11-17T09:56:16.198Z,12.01
2022-11-17T09:58:56.925Z,12.08
2022-11-17T10:01:24.040Z,12.12
2022-11-17T10:03:51.467Z,12.10
2022-11-17T10:06:23.831Z,12.11
2022-11-17T10:09:25.725Z,12.12
2022-11-17T10:11:54.901Z,12.16
2022-11-17T10:14:22.645Z,12.20
2022-11-17T10:16:58.367Z,12.28
2022-11-17T10:19:24.931Z,12.40
2022-11-17T10:22:12.820Z,12.57
2022-11-17T10:24:42.590Z,12.66
2022-11-17T10:27:22.283Z,12.77
2022-11-17T10:30:03.210Z,12.89
2022-11-17T10:32:32.538Z,13.07
2022-11-17T10:35:34.008Z,13.14
2022-11-17T10:38:21.068Z,13.14
2022-11-17T10:40:51.016Z,13.10
2022-11-17T10:43:26.801Z,13.08
2022-11-17T10:46:04.317Z,13.13
2022-11-17T10:48:36.274Z,13.18
2022-11-17T10:51:19.687Z,13.15
2022-11-17T10:54:07.081Z,13.05
2022-11-17T10:56:41.475Z,12.96
2022-11-17T10:59:30.393Z,12.86
2022-11-17T11:01:57.802Z,12.89
2022-11-17T11:04:35.095Z,12.94
2022-11-17T11:07:23.072Z,12.85
2022-11-17T11:10:11.002Z,12.94
2022-11-17T11:12:54.633Z,13.07
2022-11-17T11:15:24.829Z,13.15
2022-11-17T11:17:52.034Z,13.25
2022-11-17T11:20:24.237Z,13.30
2022-11-17T11:23:06.279Z,13.31
2022-11-17T11:25:41.413Z,13.26
2022-11-17T11:28:16.748Z,13.10
2022-11-17T11:31:33.616Z,13.03
2022-11-17T11:34:06.339Z,13.18
2022-11-17T11:36:50.720Z,13.21
2022-11-17T11:39:54.877Z,13.14
2022-11-17T11:42:36.797Z,13.21
2022-11-17T11:45:17.787Z,13.19
2022-11-17T11:47:47.208Z,13.30
2022-11-17T11:50:22.169Z,13.46
2022-11-17T11:52:56.712Z,13.45
2022-11-17T11:55:36.129Z,13.57
2022-11-17T11:58:07.556Z,13.60
2022-11-17T12:00:34.755Z,13.61
2022-11-17T12:03:10.435Z,13.62
2022-11-17T12:06:24.016Z,13.58
2022-11-17T12:09:01.706Z,13.99
2022-11-17T12:11:47.301Z,14.04
2022-11-17T12:14:18.153Z,13.85
2022-11-17T12:16:46.677Z,13.88
2022-11-17T12:19:44.421Z,13.83
2022-11-17T12:22:24.931Z,13.97
2022-11-17T12:24:57.668Z,14.17
2022-11-17T12:30:32.856Z,14.01
2022-11-17T12:33:09.052Z,13.91
2022-11-17T12:35:38.095Z,13.78
2022-11-17T12:38:22.603Z,13.77
2022-11-17T12:40:51.271Z,13.67
2022-11-17T12:43:28.016Z,13.63
2022-11-17T12:46:13.139Z,13.52
2022-11-17T12:48:52.752Z,13.56
2022-11-17T12:51:21.940Z,13.54
2022-11-17T12:53:54.422Z,13.55
2022-11-17T12:56:36.747Z,13.75
2022-11-17T12:59:17.703Z,13.81
2022-11-17T13:01:58.111Z,13.81
2022-11-17T13:04:36.691Z,13.77
2022-11-17T13:07:16.331Z,13.74
2022-11-17T13:09:42.968Z,13.67
2022-11-17T13:12:11.166Z,13.70
2022-11-17T13:14:53.418Z,13.77
2022-11-17T13:17:22.557Z,13.88
2022-11-17T13:19:59.248Z,13.87
2022-11-17T13:22:26.080Z,13.85
2022-11-17T13:24:54.035Z,13.86
2022-11-17T13:27:31.239Z,14.26
2022-11-17T13:30:14.161Z,14.12
2022-11-17T13:32:42.141Z,14.07
2022-11-17T13:35:23.362Z,14.03
2022-11-17T13:38:22.110Z,14.02
2022-11-17T13:40:51.413Z,13.99
2022-11-17T13:43:20.759Z,13.99
2022-11-17T13:45:51.503Z,13.89
2022-11-17T13:48:48.463Z,13.83
2022-11-17T13:51:28.001Z,13.82
2022-11-17T13:53:58.600Z,13.81
2022-11-17T13:56:31.198Z,13.75
2022-11-17T13:58:59.717Z,13.83
2022-11-17T14:01:29.625Z,13.86
2022-11-17T14:04:20.625Z,13.90
2022-11-17T14:07:02.359Z,13.92
2022-11-17T14:09:31.572Z,13.92
2022-11-17T14:11:59.092Z,13.84
2022-11-17T14:14:34.485Z,13.83
2022-11-17T14:17:20.816Z,13.76
2022-11-17T14:19:48.151Z,13.75
2022-11-17T14:22:22.303Z,13.79
2022-11-17T14:24:50.539Z,13.78
2022-11-17T14:27:29.856Z,13.75
2022-11-17T14:29:56.481Z,13.73
2022-11-17T14:32:23.270Z,13.67
2022-11-17T14:34:49.860Z,13.66
2022-11-17T14:37:17.075Z,13.67
2022-11-17T14:39:43.715Z,13.64
2022-11-17T14:42:11.353Z,13.62
2022-11-17T14:44:38.030Z,13.57
2022-11-17T14:47:04.743Z,13.53
2022-11-17T14:52:02.955Z,13.46
2022-11-17T14:54:29.575Z,13.42
2022-11-17T14:56:56.186Z,13.44
2022-11-17T14:59:22.842Z,13.36
2022-11-17T15:01:49.505Z,13.36
2022-11-17T15:04:43.347Z,13.35
2022-11-17T15:07:03.468Z,13.23
2022-11-17T15:09:30.328Z,13.23
2022-11-17T15:11:57.061Z,13.15
2022-11-17T15:14:23.668Z,13.10
2022-11-17T15:16:50.321Z,13.06
2022-11-17T15:19:16.997Z,13.12
2022-11-17T15:21:43.633Z,13.10
2022-11-17T15:24:10.409Z,13.16
2022-11-17T15:26:37.227Z,13.11
2022-11-17T15:29:03.885Z,13.11
2022-11-17T15:31:30.547Z,13.10
2022-11-17T15:33:57.504Z,13.11
2022-11-17T15:36:24.511Z,13.09
2022-11-17T15:38:51.232Z,13.02
2022-11-17T15:41:17.915Z,13.02
2022-11-17T15:43:45.636Z,12.99
2022-11-17T15:46:18.120Z,12.95
2022-11-17T15:48:47.204Z,12.95
2022-11-17T15:51:16.481Z,12.85
2022-11-17T15:53:44.951Z,12.78
2022-11-17T15:58:58.638Z,12.77
2022-11-17T16:01:30.730Z,12.79
2022-11-17T16:04:02.697Z,12.68
2022-11-17T16:06:30.733Z,12.68
2022-11-17T16:08:57.897Z,12.70
2022-11-17T16:11:25.910Z,12.78
2022-11-17T16:13:56.743Z,12.66
2022-11-17T16:16:25.623Z,12.65
2022-11-17T16:18:52.221Z,12.51
2022-11-17T16:21:19.013Z,12.48
2022-11-17T16:26:27.223Z,12.50
2022-11-17T16:29:11.801Z,12.53
2022-11-17T16:31:39.277Z,12.54
2022-11-17T16:36:46.927Z,12.55
2022-11-17T16:39:20.284Z,12.59
2022-11-17T16:41:47.552Z,12.54
2022-11-17T16:44:17.161Z,12.50
2022-11-17T16:46:45.859Z,12.58
2022-11-17T16:49:15.293Z,12.62
2022-11-17T16:51:48.264Z,12.51
2022-11-17T16:54:14.981Z,12.51
2022-11-17T16:56:41.992Z,12.43
2022-11-17T16:59:10.607Z,12.48
2022-11-17T17:01:37.233Z,12.37
2022-11-17T17:04:06.874Z,12.42
2022-11-17T17:06:34.705Z,12.41
2022-11-17T17:09:03.531Z,12.35
2022-11-17T17:11:31.984Z,12.24
2022-11-17T17:14:00.389Z,12.23
2022-11-17T17:16:27.256Z,12.29
2022-11-17T17:19:02.309Z,12.22
2022-11-17T17:21:30.119Z,12.13
2022-11-17T17:23:57.528Z,12.07
2022-11-17T17:26:26.506Z,12.04
2022-11-17T17:28:56.488Z,12.04
2022-11-17T17:31:25.225Z,12.07
2022-11-17T17:33:53.024Z,12.15
2022-11-17T17:36:21.968Z,12.13
2022-11-17T17:38:55.196Z,12.12
2022-11-17T17:41:24.757Z,12.08
2022-11-17T17:43:57.370Z,12.12
2022-11-17T17:46:25.073Z,12.20
2022-11-17T17:48:51.901Z,12.28
2022-11-17T17:51:20.570Z,12.34
2022-11-17T17:53:50.716Z,12.67
2022-11-17T17:56:19.667Z,12.58
2022-11-17T17:58:48.936Z,12.57
2022-11-17T18:01:16.840Z,12.58
2022-11-17T18:03:48.455Z,12.54
2022-11-17T18:06:17.949Z,12.59
2022-11-17T18:08:45.433Z,12.57
2022-11-17T18:11:14.512Z,12.64
2022-11-17T18:13:43.193Z,12.67
2022-11-17T18:16:13.379Z,12.61
2022-11-17T18:18:40.741Z,12.56
2022-11-17T18:21:09.849Z,12.54
2022-11-17T18:23:38.039Z,12.60
2022-11-17T18:26:19.525Z,12.60
2022-11-17T18:31:38.214Z,12.58
2022-11-17T18:34:18.923Z,12.61
2022-11-17T18:36:45.587Z,12.61
2022-11-17T18:41:50.529Z,12.72
2022-11-17T18:44:21.044Z,12.68
2022-11-17T18:46:48.066Z,12.74
2022-11-17T18:49:15.137Z,12.70
2022-11-17T18:51:42.141Z,12.68
2022-11-17T18:54:11.134Z,12.72
2022-11-17T18:56:38.581Z,12.74
2022-11-17T18:59:11.429Z,12.83
2022-11-17T19:01:40.159Z,12.73
2022-11-17T19:04:07.226Z,12.76
2022-11-17T19:06:34.018Z,12.74
2022-11-17T19:09:01.127Z,12.79
2022-11-17T19:11:30.914Z,12.78
2022-11-17T19:13:59.266Z,12.79
2022-11-17T19:16:26.686Z,12.76
2022-11-17T19:18:54.878Z,12.75
2022-11-17T19:21:25.953Z,12.85
2022-11-17T19:26:28.159Z,12.61
2022-11-17T19:28:59.186Z,12.51
2022-11-17T19:31:26.915Z,12.42
2022-11-17T19:36:32.045Z,12.42
2022-11-17T19:39:01.149Z,12.32
2022-11-17T19:41:31.081Z,12.23
2022-11-17T19:44:00.246Z,12.21
2022-11-17T19:46:28.755Z,12.12
2022-11-17T19:48:56.389Z,12.02
2022-11-17T19:51:29.334Z,12.08
2022-11-17T19:53:58.114Z,12.00
2022-11-17T19:56:25.801Z,12.05
2022-11-17T19:58:54.008Z,11.93
2022-11-17T20:01:26.152Z,11.86
2022-11-17T20:03:53.119Z,11.85
2022-11-17T20:06:22.199Z,11.83
2022-11-17T20:08:49.333Z,11.78
2022-11-17T20:11:21.330Z,11.68
2022-11-17T20:13:48.055Z,11.59
2022-11-17T20:16:20.525Z,11.52
2022-11-17T20:21:25.866Z,11.36
2022-11-17T20:23:52.637Z,11.33
2022-11-17T20:28:57.637Z,11.26
2022-11-17T20:31:31.636Z,11.34
2022-11-17T20:34:02.305Z,11.33
2022-11-17T20:36:31.589Z,11.34
2022-11-17T20:39:03.908Z,11.38
2022-11-17T20:41:31.035Z,11.33
2022-11-17T20:43:59.619Z,11.13
2022-11-17T20:46:27.293Z,10.92
2022-11-17T20:48:53.905Z,11.06
2022-11-17T20:51:22.238Z,10.98
2022-11-17T20:53:49.568Z,11.11
2022-11-17T20:56:17.301Z,11.03
2022-11-17T20:58:44.587Z,11.02
2022-11-17T21:01:14.739Z,11.00
2022-11-17T21:03:42.314Z,11.00
2022-11-17T21:06:09.098Z,10.95
2022-11-17T21:08:38.618Z,10.72
2022-11-17T21:11:11.903Z,10.71
2022-11-17T21:13:38.597Z,10.57
2022-11-17T21:16:11.514Z,10.55
2022-11-17T21:18:40.389Z,10.46
2022-11-17T21:21:09.769Z,10.43
2022-11-17T21:23:37.781Z,10.50
2022-11-17T21:26:06.196Z,10.42
2022-11-17T21:28:33.256Z,10.50
2022-11-17T21:31:06.416Z,10.39
2022-11-17T21:33:33.422Z,10.39
2022-11-17T21:36:01.957Z,10.40
2022-11-17T21:38:29.672Z,10.41
2022-11-17T21:41:01.889Z,10.36
2022-11-17T21:43:28.506Z,10.32
2022-11-17T21:45:55.136Z,10.49
2022-11-17T21:48:21.765Z,10.41
2022-11-17T21:50:48.702Z,10.31
2022-11-17T21:53:15.323Z,10.20
2022-11-17T21:55:42.039Z,10.16
2022-11-17T21:58:08.636Z,10.10
2022-11-17T22:00:35.365Z,9.99
2022-11-17T22:03:02.101Z,9.83
2022-11-17T22:05:28.729Z,9.88
2022-11-17T22:07:55.396Z,9.80
2022-11-17T22:10:22.107Z,9.72
2022-11-17T22:12:48.660Z,9.60
2022-11-17T22:15:15.349Z,9.64
2022-11-17T22:20:13.322Z,9.55
2022-11-17T22:22:40.112Z,9.52
2022-11-17T22:25:29.859Z,9.56
2022-11-17T22:27:53.470Z,9.48
2022-11-17T22:30:20.096Z,9.42
2022-11-17T22:32:46.723Z,9.37
2022-11-17T22:37:51.407Z,9.63
2022-11-17T22:40:18.125Z,9.72
2022-11-17T22:42:44.737Z,9.77
2022-11-17T22:45:11.458Z,9.58
2022-11-17T22:47:38.191Z,9.44
2022-11-17T22:52:38.606Z,9.49
2022-11-17T22:55:05.911Z,9.44
2022-11-17T22:57:32.555Z,9.38
2022-11-17T22:59:59.184Z,9.28
2022-11-17T23:02:25.847Z,9.27
2022-11-17T23:04:52.513Z,9.39
2022-11-17T23:07:19.192Z,9.26
2022-11-17T23:09:45.867Z,9.21
2022-11-17T23:12:12.487Z,9.17
2022-11-17T23:14:39.057Z,9.17
2022-11-17T23:17:05.815Z,9.21
2022-11-17T23:19:32.444Z,9.25
2022-11-17T23:21:59.101Z,9.29
2022-11-17T23:24:25.721Z,9.20
2022-11-17T23:26:52.388Z,9.21
2022-11-17T23:29:19.501Z,9.34
2022-11-17T23:31:46.322Z,9.32
2022-11-17T23:34:13.068Z,9.31
2022-11-17T23:36:39.810Z,9.28
2022-11-17T23:39:06.465Z,9.31
2022-11-17T23:41:33.153Z,9.38
2022-11-17T23:43:59.993Z,9.40
2022-11-17T23:46:27.371Z,9.47
2022-11-17T23:48:54.925Z,9.40
2022-11-17T23:51:24.150Z,9.39
2022-11-17T23:53:51.297Z,9.38
2022-11-17T23:56:20.692Z,9.31
2022-11-17T23:58:47.779Z,9.40
